Time;durP1;ratioP1;P1;durP2;ratioP2;P2;SDS_P1;SDS_P2;PMS_P1;PMS_P2;Temp;Humidity;BMP_temperature;BMP_pressure;BME280_temperature;BME280_humidity;BME280_pressure;Samples;Min_cycle;Max_cycle;Signal;HPM_P1;HPM_P2
2022/09/01 00:00:40;;;;;;;3.65;0.95;;;17.30;99.90;;;;;;5053020;28;39565;-79
2022/09/01 00:03:09;;;;;;;2.60;0.85;;;17.20;99.90;;;;;;5056466;28;38863;-79
2022/09/01 00:05:36;;;;;;;2.63;1.10;;;17.20;99.90;;;;;;5056461;28;38427;-79
2022/09/01 00:08:03;;;;;;;4.30;1.20;;;17.20;99.90;;;;;;5073469;28;38035;-78
2022/09/01 00:10:29;;;;;;;2.50;0.93;;;17.10;99.90;;;;;;5056965;28;39880;-79
2022/09/01 00:12:56;;;;;;;3.90;1.25;;;17.10;99.90;;;;;;5053353;28;38768;-78
2022/09/01 00:15:22;;;;;;;3.05;1.52;;;17.20;99.90;;;;;;5059444;28;38356;-79
2022/09/01 00:17:48;;;;;;;2.20;1.10;;;17.10;99.90;;;;;;5063053;28;38525;-79
2022/09/01 00:20:15;;;;;;;1.10;1.00;;;17.10;99.90;;;;;;5081201;28;38904;-79
2022/09/01 00:22:41;;;;;;;4.53;1.25;;;17.10;99.90;;;;;;5064964;28;39019;-79
2022/09/01 00:25:08;;;;;;;4.57;1.20;;;17.10;99.90;;;;;;5059561;28;37680;-78
2022/09/01 00:27:35;;;;;;;4.47;1.30;;;17.10;99.90;;;;;;5054068;28;36147;-79
2022/09/01 00:30:01;;;;;;;1.55;0.80;;;17.00;99.90;;;;;;5059687;28;40481;-79
2022/09/01 00:32:28;;;;;;;2.53;1.20;;;17.00;99.90;;;;;;5052645;28;38852;-79
2022/09/01 00:34:54;;;;;;;2.65;1.60;;;17.00;99.90;;;;;;5075715;28;37699;-78
2022/09/01 00:37:20;;;;;;;2.50;1.30;;;17.00;99.90;;;;;;5074054;28;36003;-79
2022/09/01 00:39:46;;;;;;;2.15;1.10;;;16.90;99.90;;;;;;5065667;28;39083;-79
2022/09/01 00:42:12;;;;;;;2.72;1.40;;;16.90;99.90;;;;;;5066527;28;37558;-78
2022/09/01 00:44:38;;;;;;;2.50;1.08;;;16.90;99.90;;;;;;5078730;28;38252;-79
2022/09/01 00:47:05;;;;;;;4.00;1.20;;;16.80;99.90;;;;;;5077443;28;37577;-79
2022/09/01 00:49:39;;;;;;;3.55;1.00;;;16.80;99.90;;;;;;5073774;28;39740;-79
2022/09/01 00:52:43;;;;;;;3.17;1.10;;;16.80;99.90;;;;;;5075823;28;38163;-79
2022/09/01 00:55:15;;;;;;;2.80;1.00;;;16.80;99.90;;;;;;5030668;28;37267;-79
2022/09/01 00:57:42;;;;;;;1.10;1.00;;;16.80;99.90;;;;;;5076048;28;37664;-79
2022/09/01 01:00:16;;;;;;;2.10;0.95;;;16.80;99.90;;;;;;5053240;28;40323;-78
2022/09/01 01:02:43;;;;;;;2.65;1.20;;;16.70;99.90;;;;;;5052827;28;37388;-78
2022/09/01 01:05:10;;;;;;;2.75;1.40;;;16.70;99.90;;;;;;5066991;28;37330;-78
2022/09/01 01:07:43;;;;;;;3.95;1.25;;;16.70;99.90;;;;;;5072604;28;36914;-79
2022/09/01 01:10:10;;;;;;;;;;;16.70;99.90;;;;;;5072214;28;39432;-78
2022/09/01 01:12:39;;;;;;;4.20;1.40;;;16.70;99.90;;;;;;5072187;28;37479;-78
2022/09/01 01:15:07;;;;;;;2.13;1.17;;;16.60;99.90;;;;;;5055785;28;37715;-78
2022/09/01 01:17:34;;;;;;;1.60;1.17;;;16.60;99.90;;;;;;5062294;28;37450;-77
2022/09/01 01:23:07;;;;;;;2.10;1.00;;;16.60;99.90;;;;;;5087687;28;49360;-78
2022/09/01 01:25:47;;;;;;;3.22;1.20;;;16.60;99.90;;;;;;5056561;28;47174;-79
2022/09/01 01:28:16;;;;;;;3.10;1.42;;;16.50;99.90;;;;;;5066874;28;39243;-78
2022/09/01 01:30:51;;;;;;;2.08;1.30;;;16.50;99.90;;;;;;5067984;28;38927;-78
2022/09/01 01:33:18;;;;;;;4.60;1.10;;;16.50;99.90;;;;;;5059436;28;39461;-78
2022/09/01 01:35:45;;;;;;;2.88;1.10;;;16.50;99.90;;;;;;5073707;28;37976;-78
2022/09/01 01:38:14;;;;;;;2.85;1.50;;;16.50;99.90;;;;;;5067243;28;38834;-78
2022/09/01 01:40:40;;;;;;;2.83;1.20;;;16.40;99.90;;;;;;5060562;28;40498;-78
2022/09/01 01:43:07;;;;;;;3.65;1.77;;;16.40;99.90;;;;;;5074172;28;38295;-78
2022/09/01 01:45:33;;;;;;;4.25;1.63;;;16.40;99.90;;;;;;5078265;28;38246;-78
2022/09/01 01:48:07;;;;;;;4.07;1.30;;;16.40;99.90;;;;;;5060413;28;37436;-78
2022/09/01 01:50:34;;;;;;;2.40;1.30;;;16.40;99.90;;;;;;5076906;28;48907;-78
2022/09/01 01:53:07;;;;;;;2.45;1.20;;;16.30;99.90;;;;;;5056023;28;40467;-78
2022/09/01 01:55:33;;;;;;;;;;;16.30;99.90;;;;;;5079887;28;48823;-78
2022/09/01 01:58:00;;;;;;;2.42;1.30;;;16.30;99.90;;;;;;5074094;28;37970;-78
2022/09/01 02:00:33;;;;;;;1.95;1.40;;;16.30;99.90;;;;;;5051780;28;47718;-78
2022/09/01 02:03:00;;;;;;;3.88;1.40;;;16.20;99.90;;;;;;5077804;28;38285;-78
2022/09/01 02:05:30;;;;;;;3.70;1.67;;;16.20;99.90;;;;;;5073296;28;37957;-78
2022/09/01 02:08:02;;;;;;;3.75;1.58;;;16.20;99.90;;;;;;5073537;28;36099;-78
2022/09/01 02:10:31;;;;;;;4.20;1.73;;;16.10;99.90;;;;;;5058463;28;47355;-78
2022/09/01 02:13:05;;;;;;;4.45;1.80;;;16.10;99.90;;;;;;5057678;28;39064;-78
2022/09/01 02:15:47;;;;;;;2.35;1.60;;;16.10;99.90;;;;;;5052913;28;46936;-78
2022/09/01 02:18:20;;;;;;;2.80;1.40;;;16.00;99.90;;;;;;5067577;28;37230;-77
2022/09/01 02:20:49;;;;;;;5.43;1.73;;;16.00;99.90;;;;;;5068350;28;36961;-79
2022/09/01 02:23:18;;;;;;;3.13;1.70;;;16.00;99.90;;;;;;5052919;28;38576;-78
2022/09/01 02:25:45;;;;;;;3.47;1.45;;;16.00;99.90;;;;;;5063496;28;37850;-78
2022/09/01 02:28:17;;;;;;;1.73;1.40;;;15.90;99.90;;;;;;5058522;28;37935;-78
2022/09/01 02:30:44;;;;;;;3.20;1.42;;;15.90;99.90;;;;;;5060495;28;39531;-78
2022/09/01 02:33:17;;;;;;;2.88;1.85;;;15.90;99.90;;;;;;5052178;28;37268;-78
2022/09/01 02:35:45;;;;;;;4.30;1.70;;;15.90;99.90;;;;;;5073251;28;39104;-77
2022/09/01 02:38:12;;;;;;;2.92;1.35;;;15.90;99.90;;;;;;5075370;28;38325;-78
2022/09/01 02:40:45;;;;;;;3.85;1.83;;;15.90;99.90;;;;;;5052300;28;37847;-78
2022/09/01 02:43:18;;;;;;;4.45;1.73;;;15.80;99.90;;;;;;5069166;28;38966;-78
2022/09/01 02:45:45;;;;;;;6.18;1.90;;;15.80;99.90;;;;;;5047932;28;37925;-78
2022/09/01 02:48:12;;;;;;;2.50;1.67;;;15.80;99.90;;;;;;5068582;28;38301;-78
2022/09/01 02:50:40;;;;;;;2.83;1.45;;;15.80;99.90;;;;;;5051552;28;39369;-78
2022/09/01 02:53:10;;;;;;;3.92;1.95;;;15.70;99.90;;;;;;5070800;28;39240;-78
2022/09/01 02:55:38;;;;;;;3.70;1.90;;;15.70;99.90;;;;;;5070353;28;39641;-77
2022/09/01 02:58:06;;;;;;;6.80;1.65;;;15.70;99.90;;;;;;5050110;28;38052;-78
2022/09/01 03:00:34;;;;;;;2.53;1.80;;;15.70;99.90;;;;;;5070711;28;40355;-78
2022/09/01 03:03:01;;;;;;;2.83;1.40;;;15.70;99.90;;;;;;5051818;28;40168;-78
2022/09/01 03:05:33;;;;;;;3.97;1.42;;;15.70;99.90;;;;;;5051847;28;47012;-77
2022/09/01 03:08:03;;;;;;;5.13;1.80;;;15.70;99.90;;;;;;5057695;28;38885;-78
2022/09/01 03:10:34;;;;;;;2.85;1.70;;;15.70;99.90;;;;;;5052557;28;46905;-78
2022/09/01 03:13:03;;;;;;;4.75;1.70;;;15.60;99.90;;;;;;5056208;28;39523;-78
2022/09/01 03:15:29;;;;;;;3.90;2.03;;;15.60;99.90;;;;;;5072929;28;48895;-78
2022/09/01 03:17:58;;;;;;;6.05;1.90;;;15.60;99.90;;;;;;5057021;28;37378;-78
2022/09/01 03:20:24;;;;;;;2.72;1.58;;;15.60;99.90;;;;;;5071453;28;37163;-78
2022/09/01 03:22:52;;;;;;;4.07;1.50;;;15.60;99.90;;;;;;5051565;28;40085;-78
2022/09/01 03:25:18;;;;;;;7.88;1.90;;;15.60;99.90;;;;;;5073097;28;38090;-78
2022/09/01 03:27:45;;;;;;;3.25;1.60;;;15.60;99.90;;;;;;5061596;28;36296;-77
2022/09/01 03:30:12;;;;;;;4.28;1.90;;;15.60;99.90;;;;;;5073953;28;38598;-78
2022/09/01 03:32:38;;;;;;;5.50;1.65;;;15.60;99.90;;;;;;5064493;28;37946;-78
2022/09/01 03:35:05;;;;;;;4.25;1.58;;;15.60;99.90;;;;;;5059645;28;36920;-78
2022/09/01 03:37:32;;;;;;;4.30;1.35;;;15.60;99.90;;;;;;5056116;28;37962;-78
2022/09/01 03:39:59;;;;;;;3.33;1.75;;;15.70;99.90;;;;;;5061461;28;40180;-78
2022/09/01 03:42:26;;;;;;;4.97;1.40;;;15.60;99.90;;;;;;5053088;28;37134;-78
2022/09/01 03:44:54;;;;;;;5.97;1.80;;;15.70;99.90;;;;;;5079531;28;38963;-78
2022/09/01 03:47:21;;;;;;;3.08;1.13;;;15.70;99.90;;;;;;5056473;28;38710;-77
2022/09/01 03:49:48;;;;;;;4.45;1.90;;;15.70;99.90;;;;;;5082842;28;38648;-78
2022/09/01 03:52:26;;;;;;;3.08;1.35;;;15.70;99.90;;;;;;5060226;28;38864;-78
2022/09/01 03:54:52;;;;;;;3.10;1.55;;;15.70;99.90;;;;;;5061922;28;37243;-78
2022/09/01 03:57:18;;;;;;;1.83;1.50;;;15.70;99.90;;;;;;5052158;28;36324;-78
2022/09/01 03:59:45;;;;;;;2.40;1.30;;;15.70;99.90;;;;;;5062039;28;38843;-77
2022/09/01 04:02:12;;;;;;;3.20;1.65;;;15.70;99.90;;;;;;5079879;28;39417;-77
2022/09/01 04:04:38;;;;;;;5.75;1.30;;;15.70;99.90;;;;;;5079661;28;37136;-77
2022/09/01 04:07:04;;;;;;;3.80;1.70;;;15.70;99.90;;;;;;5057242;28;39464;-78
2022/09/01 04:09:34;;;;;;;2.50;1.33;;;15.60;99.90;;;;;;5078660;28;38534;-77
2022/09/01 04:12:00;;;;;;;6.70;1.60;;;15.60;99.90;;;;;;5068517;28;37547;-77
2022/09/01 04:14:26;;;;;;;4.57;1.70;;;15.50;99.90;;;;;;5058671;28;36753;-77
2022/09/01 04:19:38;;;;;;;2.38;1.35;;;15.60;99.90;;;;;;5076110;28;49525;-77
2022/09/01 04:22:06;;;;;;;1.40;1.30;;;15.50;99.90;;;;;;5077334;28;38538;-77
2022/09/01 04:24:33;;;;;;;4.43;1.70;;;15.50;99.90;;;;;;5063021;28;36904;-77
2022/09/01 04:27:01;;;;;;;2.50;1.55;;;15.50;99.90;;;;;;5080036;28;37937;-77
2022/09/01 04:29:28;;;;;;;3.00;1.60;;;15.40;99.90;;;;;;5060443;28;46921;-77
2022/09/01 04:32:00;;;;;;;2.72;1.70;;;15.40;99.90;;;;;;5071138;28;38532;-78
2022/09/01 04:34:27;;;;;;;;;;;15.50;99.90;;;;;;5075115;28;38396;-79
2022/09/01 04:36:54;;;;;;;3.08;1.60;;;15.40;99.90;;;;;;5074157;28;38416;-79
2022/09/01 04:39:21;;;;;;;3.22;1.30;;;15.40;99.90;;;;;;5071755;28;39236;-80
2022/09/01 04:41:49;;;;;;;2.65;1.75;;;15.30;99.90;;;;;;5071398;28;38131;-79
2022/09/01 04:44:17;;;;;;;4.75;1.70;;;15.30;99.90;;;;;;5051981;28;37110;-79
2022/09/01 04:46:49;;;;;;;3.55;1.25;;;15.30;99.90;;;;;;5070673;28;36697;-78
2022/09/01 04:49:20;;;;;;;3.63;1.42;;;15.30;99.90;;;;;;5056603;28;39409;-78
2022/09/01 04:51:49;;;;;;;2.17;1.45;;;15.20;99.90;;;;;;5058441;28;39333;-78
2022/09/01 04:54:16;;;;;;;2.35;1.63;;;15.20;99.90;;;;;;5074505;28;37800;-78
2022/09/01 04:56:45;;;;;;;4.25;1.55;;;15.20;99.90;;;;;;5077928;28;38039;-79
2022/09/01 04:59:12;;;;;;;2.95;1.42;;;15.20;99.90;;;;;;5071722;28;38831;-78
2022/09/01 05:01:42;;;;;;;5.00;1.80;;;15.20;99.90;;;;;;5086484;28;39050;-77
2022/09/01 05:04:21;;;;;;;3.22;2.00;;;15.20;99.90;;;;;;5059784;28;38631;-77
2022/09/01 05:06:51;;;;;;;3.33;1.77;;;15.10;99.90;;;;;;5075324;28;37533;-76
2022/09/01 05:09:19;;;;;;;9.48;2.28;;;15.20;99.90;;;;;;5088051;28;39453;-76
2022/09/01 05:11:47;;;;;;;6.85;2.13;;;15.10;99.90;;;;;;5084814;28;38474;-76
2022/09/01 05:14:17;;;;;;;3.88;1.63;;;15.10;99.90;;;;;;5057620;28;37910;-76
2022/09/01 05:16:44;;;;;;;3.95;1.45;;;15.10;99.90;;;;;;5053961;28;38464;-76
2022/09/01 05:19:13;;;;;;;2.25;1.75;;;15.10;99.90;;;;;;5056723;28;38193;-76
2022/09/01 05:21:44;;;;;;;2.97;1.60;;;15.10;99.90;;;;;;5054135;28;37030;-80
2022/09/01 05:24:17;;;;;;;4.10;1.92;;;15.10;99.90;;;;;;5070085;28;38274;-77
2022/09/01 05:26:46;;;;;;;1.73;1.17;;;15.20;99.90;;;;;;5071381;28;37942;-76
2022/09/01 05:29:16;;;;;;;4.32;1.90;;;15.30;99.90;;;;;;5067735;28;38870;-76
2022/09/01 05:31:45;;;;;;;1.95;1.40;;;15.40;99.90;;;;;;5053693;28;39666;-77
2022/09/01 05:34:12;;;;;;;3.95;1.60;;;15.40;99.90;;;;;;5076078;28;38600;-76
2022/09/01 05:36:43;;;;;;;2.75;1.70;;;15.40;99.90;;;;;;5069736;28;37888;-76
2022/09/01 05:39:10;;;;;;;4.60;1.80;;;15.40;99.90;;;;;;5062891;28;39210;-77
2022/09/01 05:41:40;;;;;;;3.08;1.60;;;15.40;99.90;;;;;;5070923;28;37970;-77
2022/09/01 05:44:07;;;;;;;3.58;1.70;;;15.40;99.90;;;;;;5078560;28;37943;-76
2022/09/01 05:46:36;;;;;;;2.47;1.58;;;15.40;99.90;;;;;;5053715;28;37148;-77
2022/09/01 05:49:05;;;;;;;2.05;1.60;;;15.40;99.90;;;;;;5055848;28;37697;-77
2022/09/01 05:51:36;;;;;;;3.60;2.00;;;15.40;99.90;;;;;;5070814;28;38210;-77
2022/09/01 05:54:03;;;;;;;2.30;1.45;;;15.40;99.90;;;;;;5082955;28;39095;-77
2022/09/01 05:56:30;;;;;;;4.70;2.10;;;15.40;99.90;;;;;;5075541;28;38275;-76
2022/09/01 05:58:58;;;;;;;3.13;1.63;;;15.40;99.90;;;;;;5055547;28;38054;-76
2022/09/01 06:01:26;;;;;;;3.17;1.90;;;15.40;99.90;;;;;;5052086;28;36599;-78
2022/09/01 06:03:56;;;;;;;4.93;2.00;;;15.40;99.90;;;;;;5074689;28;38147;-77
2022/09/01 06:06:29;;;;;;;4.53;1.67;;;15.40;99.90;;;;;;5075807;28;38034;-77
2022/09/01 06:08:58;;;;;;;;;;;15.50;99.90;;;;;;5060555;28;37683;-78
2022/09/01 06:11:28;;;;;;;5.30;2.03;;;15.50;99.90;;;;;;5070578;28;37437;-77
2022/09/01 06:13:57;;;;;;;5.30;1.60;;;15.50;99.90;;;;;;5072125;28;37941;-77
2022/09/01 06:16:24;;;;;;;6.50;1.70;;;15.60;99.90;;;;;;5082660;28;37072;-77
2022/09/01 06:18:52;;;;;;;5.03;1.60;;;15.60;99.90;;;;;;5085983;28;38650;-77
2022/09/01 06:21:20;;;;;;;4.43;1.85;;;15.70;99.90;;;;;;5056067;28;37224;-77
2022/09/01 06:23:49;;;;;;;4.97;1.80;;;15.70;99.90;;;;;;5076742;28;20047;-78
2022/09/01 06:26:27;;;;;;;6.93;1.80;;;15.80;99.90;;;;;;5074613;28;38259;-76
2022/09/01 06:28:56;;;;;;;2.78;1.50;;;15.80;99.90;;;;;;5074457;28;38179;-77
2022/09/01 06:31:24;;;;;;;3.83;1.60;;;15.90;99.90;;;;;;5069295;28;36723;-77
2022/09/01 06:33:54;;;;;;;4.82;1.70;;;15.90;99.90;;;;;;5062835;28;38294;-76
2022/09/01 06:36:22;;;;;;;5.28;2.00;;;15.90;99.90;;;;;;5064203;28;36152;-79
2022/09/01 06:38:52;;;;;;;3.20;1.67;;;15.90;99.90;;;;;;5079118;28;38454;-76
2022/09/01 06:41:20;;;;;;;8.45;1.95;;;16.00;99.90;;;;;;5079536;28;39624;-78
2022/09/01 06:43:48;;;;;;;7.03;1.95;;;16.00;99.90;;;;;;5078592;28;37628;-76
2022/09/01 06:46:16;;;;;;;5.45;1.60;;;16.10;99.90;;;;;;5059524;28;36321;-77
2022/09/01 06:48:46;;;;;;;3.22;2.13;;;16.00;99.90;;;;;;5076284;28;38367;-78
2022/09/01 06:51:15;;;;;;;6.43;1.95;;;16.10;99.90;;;;;;5072421;28;38051;-77
2022/09/01 06:53:43;;;;;;;7.90;1.92;;;16.10;99.90;;;;;;5062028;28;37065;-77
2022/09/01 06:56:12;;;;;;;4.00;1.80;;;16.10;99.90;;;;;;5057512;28;38911;-76
2022/09/01 06:58:40;;;;;;;2.25;1.73;;;16.10;99.90;;;;;;5073706;28;38916;-77
2022/09/01 07:01:14;;;;;;;3.92;2.03;;;16.10;99.90;;;;;;5072315;28;39401;-77
2022/09/01 07:03:42;;;;;;;7.72;1.95;;;16.20;99.90;;;;;;5080962;28;38575;-77
2022/09/01 07:06:09;;;;;;;4.57;1.73;;;16.20;99.90;;;;;;5078067;28;36957;-77
2022/09/01 07:08:38;;;;;;;5.60;1.90;;;16.30;99.90;;;;;;5063105;28;39348;-77
2022/09/01 07:11:07;;;;;;;3.03;1.70;;;16.30;99.90;;;;;;5073048;28;39560;-77
2022/09/01 07:13:35;;;;;;;4.95;1.77;;;16.40;99.90;;;;;;5075915;28;38291;-82
2022/09/01 07:16:05;;;;;;;3.80;1.95;;;16.40;99.90;;;;;;5055232;28;39107;-80
2022/09/01 07:18:32;;;;;;;2.92;2.00;;;16.50;99.90;;;;;;5070009;28;48403;-77
2022/09/01 07:20:58;;;;;;;4.65;2.00;;;16.60;99.90;;;;;;5068302;28;38417;-77
2022/09/01 07:23:26;;;;;;;2.90;1.80;;;16.80;99.90;;;;;;5068487;28;38960;-77
2022/09/01 07:25:54;;;;;;;5.57;2.53;;;16.90;99.90;;;;;;5074649;28;37022;-77
2022/09/01 07:28:22;;;;;;;2.80;1.80;;;17.20;99.90;;;;;;5067430;28;39065;-77
2022/09/01 07:30:51;;;;;;;2.78;1.75;;;17.40;99.90;;;;;;5087609;28;39388;-77
2022/09/01 07:33:22;;;;;;;7.75;2.25;;;17.80;99.90;;;;;;5082795;28;38676;-77
2022/09/01 07:35:52;;;;;;;7.18;2.45;;;18.10;99.90;;;;;;5079745;28;37375;-77
2022/09/01 07:38:18;;;;;;;5.32;2.00;;;18.40;99.90;;;;;;5060118;28;39919;-74
2022/09/01 07:40:45;;;;;;;4.45;2.05;;;18.60;99.90;;;;;;5079588;28;38938;-74
2022/09/01 07:43:23;;;;;;;3.42;1.98;;;18.90;99.90;;;;;;5087051;28;38812;-75
2022/09/01 07:45:54;;;;;;;5.63;1.90;;;19.20;99.90;;;;;;5068457;28;38784;-75
2022/09/01 07:48:23;;;;;;;8.93;1.90;;;19.30;99.90;;;;;;5065304;28;39584;-75
2022/09/01 07:50:53;;;;;;;5.03;2.17;;;19.70;99.90;;;;;;5063813;28;38834;-76
2022/09/01 07:53:25;;;;;;;6.05;2.25;;;19.80;99.90;;;;;;5064228;28;38829;-76
2022/09/01 07:55:52;;;;;;;;;;;19.90;99.90;;;;;;5074767;28;37067;-76
2022/09/01 07:58:24;;;;;;;5.95;2.40;;;20.00;99.90;;;;;;5054863;28;39112;-75
2022/09/01 08:00:52;;;;;;;5.15;1.95;;;20.00;99.90;;;;;;5089446;28;39962;-76
2022/09/01 08:03:20;;;;;;;5.88;1.98;;;20.10;99.90;;;;;;5082210;28;39056;-76
2022/09/01 08:05:50;;;;;;;5.35;2.10;;;20.10;99.90;;;;;;5070598;28;38123;-76
2022/09/01 08:08:16;;;;;;;7.28;1.92;;;20.20;99.90;;;;;;5075469;28;38904;-76
2022/09/01 08:10:44;;;;;;;3.30;1.85;;;20.40;99.90;;;;;;5082693;28;38789;-76
2022/09/01 08:13:10;;;;;;;2.97;1.90;;;20.60;99.90;;;;;;5077136;28;37650;-77
2022/09/01 08:15:38;;;;;;;4.55;2.00;;;20.70;99.90;;;;;;5061015;28;35826;-76
2022/09/01 08:18:05;;;;;;;7.13;2.03;;;20.90;99.90;;;;;;5063234;28;38114;-75
2022/09/01 08:20:34;;;;;;;6.60;2.10;;;20.90;99.90;;;;;;5087690;28;38456;-75
2022/09/01 08:23:00;;;;;;;3.65;2.00;;;20.80;99.90;;;;;;5082086;28;38230;-75
2022/09/01 08:25:27;;;;;;;3.50;1.83;;;20.90;99.90;;;;;;5066264;28;39565;-78
2022/09/01 08:27:53;;;;;;;7.18;1.70;;;21.20;99.90;;;;;;5066421;28;39631;-77
2022/09/01 08:30:19;;;;;;;4.15;2.58;;;21.30;99.90;;;;;;5087086;28;39273;-77
2022/09/01 08:32:45;;;;;;;3.53;1.92;;;21.30;99.90;;;;;;5067337;28;38327;-78
2022/09/01 08:35:14;;;;;;;6.32;2.25;;;21.50;99.90;;;;;;5086772;28;36796;-78
2022/09/01 08:37:42;;;;;;;5.05;1.80;;;21.70;99.90;;;;;;5068567;28;39567;-78
2022/09/01 08:40:13;;;;;;;3.17;1.73;;;21.50;99.90;;;;;;5087230;28;39889;-76
2022/09/01 08:42:55;;;;;;;3.20;1.95;;;21.60;99.90;;;;;;5083977;28;38146;-76
2022/09/01 08:45:32;;;;;;;3.20;1.67;;;21.80;99.90;;;;;;5065936;28;38424;-76
2022/09/01 08:48:07;;;;;;;2.38;1.63;;;22.00;99.90;;;;;;5068395;28;41476;-77
2022/09/01 08:50:36;;;;;;;3.97;1.88;;;22.20;99.90;;;;;;5065607;28;47280;-76
2022/09/01 08:53:11;;;;;;;4.80;1.90;;;22.20;99.90;;;;;;5085305;28;38244;-77
2022/09/01 08:55:44;;;;;;;4.32;1.80;;;22.30;99.90;;;;;;5067609;28;37904;-77
2022/09/01 08:58:14;;;;;;;7.10;2.30;;;22.30;99.90;;;;;;5065279;28;41602;-77
2022/09/01 09:00:45;;;;;;;8.80;1.85;;;22.10;99.90;;;;;;5076872;28;38010;-79
2022/09/01 09:03:32;;;;;;;5.93;2.40;;;22.10;99.90;;;;;;5085640;28;38481;-78
2022/09/01 09:06:20;;;;;;;7.20;2.30;;;22.10;99.90;;;;;;5080017;28;36918;-78
2022/09/01 09:08:58;;;;;;;5.05;2.22;;;22.20;99.90;;;;;;5076994;28;48999;-79
2022/09/01 09:11:36;;;;;;;4.72;2.25;;;22.40;99.90;;;;;;5067845;28;39477;-77
2022/09/01 09:14:53;;;;;;;5.90;2.20;;;22.50;99.90;;;;;;5054190;28;39519;-78
2022/09/01 09:17:26;;;;;;;13.65;3.38;;;22.70;99.90;;;;;;5032677;28;37625;-79
2022/09/01 09:19:53;;;;;;;3.25;2.00;;;22.80;99.90;;;;;;5052140;28;37864;-77
2022/09/01 09:22:19;;;;;;;7.03;2.00;;;23.00;99.90;;;;;;5059847;28;38416;-78
2022/09/01 09:24:49;;;;;;;3.42;1.42;;;23.30;99.90;;;;;;5054865;28;38571;-78
2022/09/01 09:27:17;;;;;;;2.28;1.80;;;23.30;99.90;;;;;;5058927;28;38042;-78
2022/09/01 09:29:52;;;;;;;4.40;1.80;;;23.50;99.90;;;;;;5088977;28;39567;-78
2022/09/01 09:32:19;;;;;;;6.10;1.90;;;23.50;99.90;;;;;;5083105;28;39166;-79
2022/09/01 09:34:46;;;;;;;4.35;1.60;;;23.50;99.90;;;;;;5076390;28;38361;-80
2022/09/01 09:37:30;;;;;;;3.08;1.52;;;23.60;99.90;;;;;;5066498;28;36410;-78
2022/09/01 09:40:17;;;;;;;4.78;1.77;;;23.40;99.90;;;;;;5085433;28;38899;-79
2022/09/01 09:42:56;;;;;;;3.50;1.60;;;23.70;99.90;;;;;;5050570;28;46994;-77
2022/09/01 09:45:26;;;;;;;4.18;1.88;;;23.80;99.90;;;;;;5085193;28;38143;-79
2022/09/01 09:47:55;;;;;;;7.45;1.95;;;24.00;99.90;;;;;;5079340;28;36759;-79
2022/09/01 09:50:28;;;;;;;5.38;2.13;;;23.80;99.90;;;;;;5076478;28;39672;-78
2022/09/01 09:53:13;;;;;;;5.85;1.67;;;23.70;99.90;;;;;;5065536;28;40170;-77
2022/09/01 09:56:02;;;;;;;1.80;1.58;;;24.10;99.90;;;;;;5070076;28;48852;-76
2022/09/01 09:58:39;;;;;;;2.45;1.55;;;24.50;99.90;;;;;;5077981;28;47075;-76
2022/09/01 10:01:15;;;;;;;2.28;1.30;;;24.40;99.90;;;;;;5056588;28;37250;-76
2022/09/01 10:03:50;;;;;;;3.78;1.92;;;24.40;99.90;;;;;;5059530;28;39088;-76
2022/09/01 10:06:34;;;;;;;6.72;1.70;;;24.30;99.90;;;;;;5074966;28;39511;-79
2022/09/01 10:09:07;;;;;;;3.95;1.83;;;24.20;99.90;;;;;;5068019;28;37486;-78
2022/09/01 10:11:39;;;;;;;1.88;1.50;;;24.40;99.90;;;;;;5067777;28;46874;-76
2022/09/01 10:14:26;;;;;;;6.40;1.70;;;24.60;99.90;;;;;;5060080;28;38750;-77
2022/09/01 10:17:00;;;;;;;5.35;1.90;;;25.00;99.90;;;;;;5081874;28;37781;-76
2022/09/01 10:19:28;;;;;;;3.88;1.60;;;24.70;99.90;;;;;;5076726;28;37493;-76
2022/09/01 10:21:54;;;;;;;4.57;1.67;;;24.80;99.90;;;;;;5056062;28;39167;-75
2022/09/01 10:24:34;;;;;;;3.65;1.25;;;25.10;99.90;;;;;;5059420;28;38556;-75
2022/09/01 10:27:18;;;;;;;4.68;1.30;;;25.10;99.90;;;;;;5057766;28;38552;-75
2022/09/01 10:29:50;;;;;;;1.55;1.23;;;25.50;99.90;;;;;;5064119;28;48836;-76
2022/09/01 10:32:27;;;;;;;1.67;1.15;;;25.30;99.90;;;;;;5060973;28;39284;-74
2022/09/01 10:34:54;;;;;;;4.22;1.35;;;25.40;99.90;;;;;;5061387;28;38363;-75
2022/09/01 10:37:22;;;;;;;6.00;1.17;;;25.70;99.90;;;;;;5063964;28;38623;-75
2022/09/01 10:40:19;;;;;;;1.80;1.10;;;26.10;99.90;;;;;;5058775;28;37450;-75
2022/09/01 10:42:53;;;;;;;3.75;1.40;;;26.10;99.90;;;;;;5059900;28;46981;-75
2022/09/01 10:45:31;;;;;;;3.70;1.25;;;26.10;99.90;;;;;;5066867;28;39395;-75
2022/09/01 10:48:29;;;;;;;3.50;1.58;;;26.30;99.90;;;;;;5059809;28;37208;-75
2022/09/01 10:51:13;;;;;;;3.28;1.20;;;26.30;99.90;;;;;;5066616;28;48873;-75
2022/09/01 10:53:50;;;;;;;2.05;1.10;;;25.90;99.90;;;;;;5057975;28;48022;-75
2022/09/01 10:56:41;;;;;;;2.17;0.95;;;26.00;99.90;;;;;;5065496;28;38564;-76
2022/09/01 10:59:25;;;;;;;3.47;1.37;;;26.30;99.90;;;;;;5054892;28;39797;-76
2022/09/01 11:01:51;;;;;;;4.10;1.15;;;26.50;99.90;;;;;;5051533;28;36826;-75
2022/09/01 11:04:22;;;;;;;3.97;1.30;;;26.30;99.90;;;;;;5052709;28;39448;-75
2022/09/01 11:06:57;;;;;;;2.75;1.02;;;26.10;99.90;;;;;;5054563;28;38766;-77
2022/09/01 11:09:33;;;;;;;1.73;1.20;;;26.30;99.90;;;;;;5063583;28;39332;-76
2022/09/01 11:12:12;;;;;;;2.47;1.20;;;26.40;99.90;;;;;;5064334;28;38159;-76
2022/09/01 11:15:25;;;;;;;2.03;1.13;;;26.30;99.90;;;;;;5062552;28;47195;-76
2022/09/01 11:17:51;;;;;;;5.40;1.42;;;25.90;99.90;;;;;;5062393;28;47170;-77
2022/09/01 11:20:32;;;;;;;4.15;1.00;;;26.00;99.90;;;;;;5063231;28;37061;-75
2022/09/01 11:22:58;;;;;;;2.08;0.80;;;26.20;99.90;;;;;;5068159;28;38596;-77
2022/09/01 11:25:32;;;;;;;1.95;0.90;;;26.10;99.90;;;;;;5071175;28;38715;-78
2022/09/01 11:28:14;;;;;;;5.72;1.35;;;25.70;99.90;;;;;;5057523;28;39447;-76
2022/09/01 11:30:53;;;;;;;1.08;0.95;;;25.80;99.90;;;;;;5061626;28;46923;-76
2022/09/01 11:33:26;;;;;;;4.25;1.40;;;25.90;99.90;;;;;;5077052;28;37583;-76
2022/09/01 11:36:05;;;;;;;2.22;0.90;;;26.20;99.90;;;;;;5064723;28;38759;-76
2022/09/01 11:38:44;;;;;;;2.00;0.93;;;26.60;99.90;;;;;;5069964;28;47203;-76
2022/09/01 11:41:32;;;;;;;1.90;0.90;;;26.70;99.90;;;;;;5063589;28;37261;-76
2022/09/01 11:44:02;;;;;;;2.58;0.90;;;26.90;99.90;;;;;;5080034;28;37570;-75
2022/09/01 11:46:31;;;;;;;1.27;0.85;;;26.90;99.90;;;;;;5055760;28;47380;-76
2022/09/01 11:49:02;;;;;;;1.05;0.90;;;26.70;99.90;;;;;;5075728;28;38349;-76
2022/09/01 11:51:46;;;;;;;4.47;1.00;;;26.30;99.90;;;;;;5074529;28;45869;-74
2022/09/01 11:54:13;;;;;;;4.50;1.25;;;26.30;99.90;;;;;;5075158;28;37258;-78
2022/09/01 11:56:40;;;;;;;2.55;0.85;;;26.50;99.90;;;;;;5081584;28;38401;-75
2022/09/01 11:59:06;;;;;;;1.00;0.90;;;26.60;99.90;;;;;;5074860;28;38155;-75
2022/09/01 12:01:35;;;;;;;1.08;0.93;;;26.50;99.90;;;;;;5079673;28;38337;-77
2022/09/01 12:04:21;;;;;;;2.75;1.05;;;25.90;99.90;;;;;;5084282;28;37200;-76
2022/09/01 12:06:58;;;;;;;3.83;0.93;;;26.10;99.90;;;;;;5076945;28;37618;-75
2022/09/01 12:09:54;;;;;;;0.80;0.80;;;25.80;99.90;;;;;;5082320;28;38486;-75
2022/09/01 12:12:29;;;;;;;3.55;0.70;;;26.00;99.90;;;;;;5076328;28;37746;-74
2022/09/01 12:15:20;;;;;;;1.73;0.90;;;26.50;99.90;;;;;;5070923;28;36049;-74
2022/09/01 12:17:46;;;;;;;3.72;1.20;;;26.90;99.90;;;;;;5078999;28;49790;-74
2022/09/01 12:20:21;;;;;;;4.57;0.93;;;26.30;99.90;;;;;;5069577;28;37136;-75
2022/09/01 12:22:47;;;;;;;2.55;1.08;;;26.30;99.90;;;;;;5090902;28;38983;-75
2022/09/01 12:25:23;;;;;;;2.83;0.80;;;26.50;99.90;;;;;;5074889;28;38295;-74
2022/09/01 12:27:50;;;;;;;2.78;0.90;;;26.50;99.90;;;;;;5075026;28;38845;-74
2022/09/01 12:30:25;;;;;;;1.40;1.00;;;26.90;99.90;;;;;;5077843;28;38670;-73
2022/09/01 12:32:52;;;;;;;1.05;0.80;;;26.90;99.90;;;;;;5062654;28;39378;-74
2022/09/01 12:35:24;;;;;;;1.95;0.80;;;27.20;99.90;;;;;;5063694;28;38052;-74
2022/09/01 12:37:51;;;;;;;2.15;0.95;;;27.10;99.90;;;;;;5059004;28;40728;-74
2022/09/01 12:40:36;;;;;;;1.00;0.70;;;26.90;99.90;;;;;;5074097;28;39309;-75
2022/09/01 12:43:02;;;;;;;1.58;1.00;;;26.30;99.90;;;;;;5074331;28;38346;-74
2022/09/01 12:45:42;;;;;;;4.47;0.82;;;26.30;99.90;;;;;;5065050;28;37353;-74
2022/09/01 12:48:27;;;;;;;1.92;0.85;;;26.50;99.90;;;;;;5057833;28;38248;-74
2022/09/01 12:50:55;;;;;;;1.52;0.90;;;26.80;99.90;;;;;;5065825;28;38601;-75
2022/09/01 12:53:24;;;;;;;2.70;0.60;;;27.00;99.90;;;;;;5085725;28;37486;-75
2022/09/01 12:56:03;;;;;;;1.15;0.80;;;27.10;99.90;;;;;;5062169;28;36681;-74
2022/09/01 12:58:30;;;;;;;1.50;0.60;;;26.90;99.90;;;;;;5080732;28;48689;-74
2022/09/01 13:01:04;;;;;;;2.42;0.95;;;27.00;99.90;;;;;;5083537;28;37910;-74
2022/09/01 13:03:31;;;;;;;4.72;0.70;;;27.10;99.90;;;;;;5076962;28;49528;-75
2022/09/01 13:05:59;;;;;;;3.17;0.70;;;26.70;99.90;;;;;;5067701;28;38012;-75
2022/09/01 13:08:29;;;;;;;3.75;0.93;;;26.50;99.90;;;;;;5080515;28;39254;-75
2022/09/01 13:10:57;;;;;;;3.53;0.80;;;26.80;99.90;;;;;;5060581;28;40206;-74
2022/09/01 13:13:25;;;;;;;1.23;0.90;;;27.00;99.90;;;;;;5084276;28;36819;-74